sensor_id;sensor_type;location;lat;lon;timestamp;P1;durP1;ratioP1;P2;durP2;ratioP2
29574;SDS011;16507;51.046;6.406;2023-07-13T00:00:17;7.90;;;1.30;;
29574;SDS011;16507;51.046;6.406;2023-07-13T00:02:43;2.58;;;1.00;;
29574;SDS011;16507;51.046;6.406;2023-07-13T00:05:09;2.90;;;1.17;;
29574;SDS011;16507;51.046;6.406;2023-07-13T00:07:35;7.50;;;1.23;;
29574;SDS011;16507;51.046;6.406;2023-07-13T00:10:01;8.80;;;1.40;;
29574;SDS011;16507;51.046;6.406;2023-07-13T00:14:58;4.38;;;1.35;;
29574;SDS011;16507;51.046;6.406;2023-07-13T00:17:26;8.13;;;1.15;;
29574;SDS011;16507;51.046;6.406;2023-07-13T00:19:53;3.80;;;1.42;;
29574;SDS011;16507;51.046;6.406;2023-07-13T00:22:20;6.50;;;1.00;;
29574;SDS011;16507;51.046;6.406;2023-07-13T00:24:49;4.78;;;1.20;;
29574;SDS011;16507;51.046;6.406;2023-07-13T00:27:17;8.93;;;1.33;;
29574;SDS011;16507;51.046;6.406;2023-07-13T00:29:43;3.60;;;1.13;;
29574;SDS011;16507;51.046;6.406;2023-07-13T00:32:09;5.25;;;1.00;;
29574;SDS011;16507;51.046;6.406;2023-07-13T00:34:36;2.90;;;1.05;;
29574;SDS011;16507;51.046;6.406;2023-07-13T00:37:07;4.38;;;1.05;;
29574;SDS011;16507;51.046;6.406;2023-07-13T00:39:33;1.98;;;0.98;;
29574;SDS011;16507;51.046;6.406;2023-07-13T00:42:00;6.15;;;1.08;;
29574;SDS011;16507;51.046;6.406;2023-07-13T00:44:27;4.82;;;0.90;;
29574;SDS011;16507;51.046;6.406;2023-07-13T00:57:00;3.65;;;1.10;;
29574;SDS011;16507;51.046;6.406;2023-07-13T00:59:30;6.28;;;1.08;;
29574;SDS011;16507;51.046;6.406;2023-07-13T01:01:56;6.53;;;1.20;;
29574;SDS011;16507;51.046;6.406;2023-07-13T01:04:25;6.28;;;1.38;;
29574;SDS011;16507;51.046;6.406;2023-07-13T01:06:51;6.53;;;1.30;;
29574;SDS011;16507;51.046;6.406;2023-07-13T01:09:19;3.97;;;1.30;;
29574;SDS011;16507;51.046;6.406;2023-07-13T01:11:45;4.10;;;1.40;;
29574;SDS011;16507;51.046;6.406;2023-07-13T01:14:11;4.47;;;1.10;;
29574;SDS011;16507;51.046;6.406;2023-07-13T01:16:38;3.13;;;0.93;;
29574;SDS011;16507;51.046;6.406;2023-07-13T01:19:08;7.38;;;1.15;;
29574;SDS011;16507;51.046;6.406;2023-07-13T01:21:43;10.85;;;1.17;;
29574;SDS011;16507;51.046;6.406;2023-07-13T01:24:15;11.40;;;1.02;;
29574;SDS011;16507;51.046;6.406;2023-07-13T01:26:41;4.07;;;1.10;;
29574;SDS011;16507;51.046;6.406;2023-07-13T01:29:07;6.63;;;1.08;;
29574;SDS011;16507;51.046;6.406;2023-07-13T01:31:32;4.10;;;1.10;;
29574;SDS011;16507;51.046;6.406;2023-07-13T01:34:01;3.50;;;0.90;;
29574;SDS011;16507;51.046;6.406;2023-07-13T01:36:26;3.65;;;1.27;;
29574;SDS011;16507;51.046;6.406;2023-07-13T01:38:52;4.03;;;1.23;;
29574;SDS011;16507;51.046;6.406;2023-07-13T01:41:18;7.68;;;1.30;;
29574;SDS011;16507;51.046;6.406;2023-07-13T01:43:43;4.40;;;1.30;;
29574;SDS011;16507;51.046;6.406;2023-07-13T01:46:09;7.28;;;1.52;;
29574;SDS011;16507;51.046;6.406;2023-07-13T01:48:35;4.47;;;1.35;;
29574;SDS011;16507;51.046;6.406;2023-07-13T01:51:00;4.03;;;1.33;;
29574;SDS011;16507;51.046;6.406;2023-07-13T01:53:26;4.45;;;1.33;;
29574;SDS011;16507;51.046;6.406;2023-07-13T01:55:51;9.88;;;1.33;;
29574;SDS011;16507;51.046;6.406;2023-07-13T01:58:17;6.63;;;1.80;;
29574;SDS011;16507;51.046;6.406;2023-07-13T02:00:42;2.90;;;1.25;;
29574;SDS011;16507;51.046;6.406;2023-07-13T02:03:11;7.50;;;1.25;;
29574;SDS011;16507;51.046;6.406;2023-07-13T02:05:39;3.17;;;1.02;;
29574;SDS011;16507;51.046;6.406;2023-07-13T02:08:05;4.15;;;1.10;;
29574;SDS011;16507;51.046;6.406;2023-07-13T02:10:30;5.43;;;1.92;;
29574;SDS011;16507;51.046;6.406;2023-07-13T02:12:56;4.97;;;1.25;;
29574;SDS011;16507;51.046;6.406;2023-07-13T02:15:22;8.52;;;1.33;;
29574;SDS011;16507;51.046;6.406;2023-07-13T02:17:47;8.73;;;1.45;;
29574;SDS011;16507;51.046;6.406;2023-07-13T02:20:13;2.53;;;1.02;;
29574;SDS011;16507;51.046;6.406;2023-07-13T02:22:38;10.45;;;1.65;;
29574;SDS011;16507;51.046;6.406;2023-07-13T02:25:04;4.05;;;1.05;;
29574;SDS011;16507;51.046;6.406;2023-07-13T02:27:31;5.80;;;1.15;;
29574;SDS011;16507;51.046;6.406;2023-07-13T02:29:59;4.50;;;1.30;;
29574;SDS011;16507;51.046;6.406;2023-07-13T02:32:25;8.93;;;1.33;;
29574;SDS011;16507;51.046;6.406;2023-07-13T02:34:51;6.85;;;1.30;;
29574;SDS011;16507;51.046;6.406;2023-07-13T02:37:17;12.13;;;1.67;;
29574;SDS011;16507;51.046;6.406;2023-07-13T02:39:46;6.25;;;1.48;;
29574;SDS011;16507;51.046;6.406;2023-07-13T02:42:13;18.48;;;2.13;;
29574;SDS011;16507;51.046;6.406;2023-07-13T02:44:38;3.70;;;1.33;;
29574;SDS011;16507;51.046;6.406;2023-07-13T02:47:04;9.88;;;1.40;;
29574;SDS011;16507;51.046;6.406;2023-07-13T02:49:30;6.45;;;1.20;;
29574;SDS011;16507;51.046;6.406;2023-07-13T02:51:56;6.38;;;1.60;;
29574;SDS011;16507;51.046;6.406;2023-07-13T02:54:21;7.15;;;1.40;;
29574;SDS011;16507;51.046;6.406;2023-07-13T02:56:47;4.07;;;1.30;;
29574;SDS011;16507;51.046;6.406;2023-07-13T02:59:13;4.93;;;1.67;;
29574;SDS011;16507;51.046;6.406;2023-07-13T03:01:38;3.78;;;1.08;;
29574;SDS011;16507;51.046;6.406;2023-07-13T03:04:05;13.13;;;1.40;;
29574;SDS011;16507;51.046;6.406;2023-07-13T03:06:31;4.80;;;1.05;;
29574;SDS011;16507;51.046;6.406;2023-07-13T03:08:57;5.72;;;1.25;;
29574;SDS011;16507;51.046;6.406;2023-07-13T03:11:24;6.35;;;1.65;;
29574;SDS011;16507;51.046;6.406;2023-07-13T03:13:51;8.48;;;1.60;;
29574;SDS011;16507;51.046;6.406;2023-07-13T03:16:17;13.38;;;1.60;;
29574;SDS011;16507;51.046;6.406;2023-07-13T03:18:43;8.40;;;1.17;;
29574;SDS011;16507;51.046;6.406;2023-07-13T03:21:09;15.23;;;1.70;;
29574;SDS011;16507;51.046;6.406;2023-07-13T03:23:35;11.75;;;1.98;;
29574;SDS011;16507;51.046;6.406;2023-07-13T03:26:05;8.10;;;1.48;;
29574;SDS011;16507;51.046;6.406;2023-07-13T03:28:33;14.38;;;1.73;;
29574;SDS011;16507;51.046;6.406;2023-07-13T03:31:00;5.25;;;1.63;;
29574;SDS011;16507;51.046;6.406;2023-07-13T03:33:29;14.27;;;1.80;;
29574;SDS011;16507;51.046;6.406;2023-07-13T03:35:55;4.93;;;1.58;;
29574;SDS011;16507;51.046;6.406;2023-07-13T03:38:21;8.40;;;1.88;;
29574;SDS011;16507;51.046;6.406;2023-07-13T03:40:47;4.07;;;1.48;;
29574;SDS011;16507;51.046;6.406;2023-07-13T03:43:13;4.72;;;1.90;;
29574;SDS011;16507;51.046;6.406;2023-07-13T03:45:38;5.57;;;1.60;;
29574;SDS011;16507;51.046;6.406;2023-07-13T03:48:04;4.50;;;1.65;;
29574;SDS011;16507;51.046;6.406;2023-07-13T03:50:30;6.38;;;1.77;;
29574;SDS011;16507;51.046;6.406;2023-07-13T03:52:57;6.28;;;1.30;;
29574;SDS011;16507;51.046;6.406;2023-07-13T03:55:23;6.28;;;1.88;;
29574;SDS011;16507;51.046;6.406;2023-07-13T03:57:53;3.90;;;1.20;;
29574;SDS011;16507;51.046;6.406;2023-07-13T04:00:22;3.90;;;1.20;;
29574;SDS011;16507;51.046;6.406;2023-07-13T04:02:48;5.80;;;1.92;;
29574;SDS011;16507;51.046;6.406;2023-07-13T04:05:14;7.50;;;1.70;;
29574;SDS011;16507;51.046;6.406;2023-07-13T04:07:40;7.28;;;1.80;;
29574;SDS011;16507;51.046;6.406;2023-07-13T04:10:06;6.97;;;1.70;;
29574;SDS011;16507;51.046;6.406;2023-07-13T04:12:32;6.32;;;1.35;;
29574;SDS011;16507;51.046;6.406;2023-07-13T04:14:57;6.43;;;1.55;;
29574;SDS011;16507;51.046;6.406;2023-07-13T04:17:23;9.10;;;1.63;;
29574;SDS011;16507;51.046;6.406;2023-07-13T04:19:48;4.65;;;1.40;;
29574;SDS011;16507;51.046;6.406;2023-07-13T04:22:14;3.65;;;1.15;;
29574;SDS011;16507;51.046;6.406;2023-07-13T04:24:40;8.57;;;1.60;;
29574;SDS011;16507;51.046;6.406;2023-07-13T04:27:06;4.43;;;1.30;;
29574;SDS011;16507;51.046;6.406;2023-07-13T04:29:32;8.30;;;2.00;;
29574;SDS011;16507;51.046;6.406;2023-07-13T04:31:58;8.20;;;1.85;;
29574;SDS011;16507;51.046;6.406;2023-07-13T04:34:23;4.72;;;1.50;;
29574;SDS011;16507;51.046;6.406;2023-07-13T04:36:49;5.57;;;1.70;;
29574;SDS011;16507;51.046;6.406;2023-07-13T04:39:15;5.43;;;1.30;;
29574;SDS011;16507;51.046;6.406;2023-07-13T04:41:41;6.28;;;1.60;;
29574;SDS011;16507;51.046;6.406;2023-07-13T04:44:07;2.70;;;1.38;;
29574;SDS011;16507;51.046;6.406;2023-07-13T04:46:32;5.57;;;1.42;;
29574;SDS011;16507;51.046;6.406;2023-07-13T04:48:58;5.97;;;1.67;;
29574;SDS011;16507;51.046;6.406;2023-07-13T04:51:24;4.50;;;1.50;;
29574;SDS011;16507;51.046;6.406;2023-07-13T04:53:50;6.38;;;1.30;;
29574;SDS011;16507;51.046;6.406;2023-07-13T04:56:15;4.70;;;1.20;;
29574;SDS011;16507;51.046;6.406;2023-07-13T04:58:41;3.42;;;1.50;;
29574;SDS011;16507;51.046;6.406;2023-07-13T05:01:07;8.35;;;1.50;;
29574;SDS011;16507;51.046;6.406;2023-07-13T05:03:34;4.70;;;1.40;;
29574;SDS011;16507;51.046;6.406;2023-07-13T05:06:00;8.32;;;1.50;;
29574;SDS011;16507;51.046;6.406;2023-07-13T05:08:28;6.95;;;1.48;;
29574;SDS011;16507;51.046;6.406;2023-07-13T05:10:54;7.90;;;1.45;;
29574;SDS011;16507;51.046;6.406;2023-07-13T05:13:20;4.47;;;1.35;;
29574;SDS011;16507;51.046;6.406;2023-07-13T05:15:47;8.98;;;1.67;;
29574;SDS011;16507;51.046;6.406;2023-07-13T05:18:21;6.60;;;1.40;;
29574;SDS011;16507;51.046;6.406;2023-07-13T05:20:46;7.28;;;1.85;;
29574;SDS011;16507;51.046;6.406;2023-07-13T05:23:12;9.25;;;1.65;;
29574;SDS011;16507;51.046;6.406;2023-07-13T05:25:37;7.55;;;1.80;;
29574;SDS011;16507;51.046;6.406;2023-07-13T05:28:03;2.88;;;1.48;;
29574;SDS011;16507;51.046;6.406;2023-07-13T05:30:29;6.13;;;1.70;;
29574;SDS011;16507;51.046;6.406;2023-07-13T05:32:55;10.18;;;1.88;;
29574;SDS011;16507;51.046;6.406;2023-07-13T05:35:21;6.35;;;1.40;;
29574;SDS011;16507;51.046;6.406;2023-07-13T05:37:46;12.30;;;2.13;;
29574;SDS011;16507;51.046;6.406;2023-07-13T05:40:12;5.68;;;1.38;;
29574;SDS011;16507;51.046;6.406;2023-07-13T05:42:37;2.90;;;1.65;;
29574;SDS011;16507;51.046;6.406;2023-07-13T05:45:03;3.70;;;1.60;;
29574;SDS011;16507;51.046;6.406;2023-07-13T05:47:29;7.93;;;2.20;;
29574;SDS011;16507;51.046;6.406;2023-07-13T05:49:54;5.07;;;1.85;;
29574;SDS011;16507;51.046;6.406;2023-07-13T05:52:20;5.93;;;1.83;;
29574;SDS011;16507;51.046;6.406;2023-07-13T05:54:46;12.70;;;2.17;;
29574;SDS011;16507;51.046;6.406;2023-07-13T05:57:11;10.60;;;2.10;;
29574;SDS011;16507;51.046;6.406;2023-07-13T05:59:37;9.10;;;1.83;;
29574;SDS011;16507;51.046;6.406;2023-07-13T06:02:02;5.65;;;1.48;;
29574;SDS011;16507;51.046;6.406;2023-07-13T06:04:28;7.32;;;1.73;;
29574;SDS011;16507;51.046;6.406;2023-07-13T06:06:54;7.70;;;2.58;;
29574;SDS011;16507;51.046;6.406;2023-07-13T06:09:19;9.70;;;1.95;;
29574;SDS011;16507;51.046;6.406;2023-07-13T06:11:45;7.43;;;1.88;;
29574;SDS011;16507;51.046;6.406;2023-07-13T06:14:10;4.22;;;1.83;;
29574;SDS011;16507;51.046;6.406;2023-07-13T06:16:36;4.15;;;1.63;;
29574;SDS011;16507;51.046;6.406;2023-07-13T06:19:01;8.00;;;2.00;;
29574;SDS011;16507;51.046;6.406;2023-07-13T06:21:27;9.05;;;2.08;;
29574;SDS011;16507;51.046;6.406;2023-07-13T06:23:53;9.57;;;2.40;;
29574;SDS011;16507;51.046;6.406;2023-07-13T06:26:19;7.95;;;1.95;;
29574;SDS011;16507;51.046;6.406;2023-07-13T06:28:47;5.68;;;2.10;;
29574;SDS011;16507;51.046;6.406;2023-07-13T06:31:13;7.18;;;2.55;;
29574;SDS011;16507;51.046;6.406;2023-07-13T06:33:39;11.10;;;2.70;;
29574;SDS011;16507;51.046;6.406;2023-07-13T06:36:06;8.05;;;2.05;;
29574;SDS011;16507;51.046;6.406;2023-07-13T06:38:33;9.43;;;2.35;;
29574;SDS011;16507;51.046;6.406;2023-07-13T06:40:59;8.32;;;2.00;;
29574;SDS011;16507;51.046;6.406;2023-07-13T06:43:24;8.13;;;2.72;;
29574;SDS011;16507;51.046;6.406;2023-07-13T06:45:51;12.65;;;3.30;;
29574;SDS011;16507;51.046;6.406;2023-07-13T06:48:19;7.88;;;2.47;;
29574;SDS011;16507;51.046;6.406;2023-07-13T06:50:46;10.25;;;2.63;;
29574;SDS011;16507;51.046;6.406;2023-07-13T06:53:14;12.00;;;2.90;;
29574;SDS011;16507;51.046;6.406;2023-07-13T06:55:39;6.55;;;2.20;;
29574;SDS011;16507;51.046;6.406;2023-07-13T06:58:05;8.75;;;2.25;;
29574;SDS011;16507;51.046;6.406;2023-07-13T07:00:32;6.22;;;2.13;;
29574;SDS011;16507;51.046;6.406;2023-07-13T07:02:57;9.98;;;2.45;;
29574;SDS011;16507;51.046;6.406;2023-07-13T07:05:23;11.35;;;2.20;;
29574;SDS011;16507;51.046;6.406;2023-07-13T07:07:49;9.75;;;2.08;;
29574;SDS011;16507;51.046;6.406;2023-07-13T07:10:16;5.97;;;2.05;;
29574;SDS011;16507;51.046;6.406;2023-07-13T07:12:42;7.68;;;1.88;;
29574;SDS011;16507;51.046;6.406;2023-07-13T07:15:08;8.52;;;1.80;;
29574;SDS011;16507;51.046;6.406;2023-07-13T07:17:34;8.55;;;2.03;;
29574;SDS011;16507;51.046;6.406;2023-07-13T07:19:59;9.88;;;2.15;;
29574;SDS011;16507;51.046;6.406;2023-07-13T07:22:25;10.35;;;2.13;;
29574;SDS011;16507;51.046;6.406;2023-07-13T07:24:52;6.18;;;2.20;;
29574;SDS011;16507;51.046;6.406;2023-07-13T07:27:18;7.47;;;3.03;;
29574;SDS011;16507;51.046;6.406;2023-07-13T07:29:44;8.73;;;2.45;;
29574;SDS011;16507;51.046;6.406;2023-07-13T07:32:10;11.07;;;2.40;;
29574;SDS011;16507;51.046;6.406;2023-07-13T07:34:36;15.23;;;3.08;;
29574;SDS011;16507;51.046;6.406;2023-07-13T07:37:02;17.42;;;3.20;;
29574;SDS011;16507;51.046;6.406;2023-07-13T07:39:28;17.58;;;2.63;;
29574;SDS011;16507;51.046;6.406;2023-07-13T07:41:53;8.98;;;2.17;;
29574;SDS011;16507;51.046;6.406;2023-07-13T07:44:19;12.18;;;3.03;;
29574;SDS011;16507;51.046;6.406;2023-07-13T07:46:45;15.77;;;3.00;;
29574;SDS011;16507;51.046;6.406;2023-07-13T07:49:11;18.35;;;3.72;;
29574;SDS011;16507;51.046;6.406;2023-07-13T07:51:37;8.55;;;2.28;;
29574;SDS011;16507;51.046;6.406;2023-07-13T07:54:03;13.25;;;2.67;;
29574;SDS011;16507;51.046;6.406;2023-07-13T07:56:30;12.93;;;2.50;;
29574;SDS011;16507;51.046;6.406;2023-07-13T07:58:56;11.90;;;3.28;;
29574;SDS011;16507;51.046;6.406;2023-07-13T08:01:21;10.93;;;2.72;;
29574;SDS011;16507;51.046;6.406;2023-07-13T08:03:47;10.60;;;2.70;;
29574;SDS011;16507;51.046;6.406;2023-07-13T08:06:14;7.95;;;2.58;;
29574;SDS011;16507;51.046;6.406;2023-07-13T08:08:41;7.43;;;2.47;;
29574;SDS011;16507;51.046;6.406;2023-07-13T08:11:09;9.82;;;3.30;;
29574;SDS011;16507;51.046;6.406;2023-07-13T08:13:36;11.80;;;2.72;;
29574;SDS011;16507;51.046;6.406;2023-07-13T08:16:05;7.28;;;2.65;;
29574;SDS011;16507;51.046;6.406;2023-07-13T08:18:31;9.68;;;2.03;;
29574;SDS011;16507;51.046;6.406;2023-07-13T08:20:57;11.10;;;2.50;;
29574;SDS011;16507;51.046;6.406;2023-07-13T08:23:23;7.65;;;2.70;;
29574;SDS011;16507;51.046;6.406;2023-07-13T08:25:53;5.57;;;2.10;;
29574;SDS011;16507;51.046;6.406;2023-07-13T08:28:20;7.93;;;2.20;;
29574;SDS011;16507;51.046;6.406;2023-07-13T08:30:46;9.50;;;2.72;;
29574;SDS011;16507;51.046;6.406;2023-07-13T08:33:14;7.45;;;1.80;;
29574;SDS011;16507;51.046;6.406;2023-07-13T08:35:40;9.88;;;2.38;;
29574;SDS011;16507;51.046;6.406;2023-07-13T08:38:06;10.38;;;1.73;;
29574;SDS011;16507;51.046;6.406;2023-07-13T08:40:32;8.35;;;2.20;;
29574;SDS011;16507;51.046;6.406;2023-07-13T08:42:59;6.43;;;1.88;;
29574;SDS011;16507;51.046;6.406;2023-07-13T08:45:40;8.73;;;1.83;;
29574;SDS011;16507;51.046;6.406;2023-07-13T08:50:51;5.78;;;1.65;;
29574;SDS011;16507;51.046;6.406;2023-07-13T08:53:39;6.82;;;1.92;;
29574;SDS011;16507;51.046;6.406;2023-07-13T08:56:11;6.25;;;1.83;;
29574;SDS011;16507;51.046;6.406;2023-07-13T08:58:47;6.28;;;1.73;;
29574;SDS011;16507;51.046;6.406;2023-07-13T09:04:18;8.13;;;1.73;;
29574;SDS011;16507;51.046;6.406;2023-07-13T09:12:11;8.82;;;2.13;;
29574;SDS011;16507;51.046;6.406;2023-07-13T09:14:43;9.82;;;1.88;;
29574;SDS011;16507;51.046;6.406;2023-07-13T09:17:24;9.82;;;1.90;;
29574;SDS011;16507;51.046;6.406;2023-07-13T09:19:56;4.40;;;1.92;;
29574;SDS011;16507;51.046;6.406;2023-07-13T09:22:29;5.55;;;2.08;;
29574;SDS011;16507;51.046;6.406;2023-07-13T09:27:30;11.68;;;1.90;;
29574;SDS011;16507;51.046;6.406;2023-07-13T09:32:37;7.90;;;1.75;;
29574;SDS011;16507;51.046;6.406;2023-07-13T09:35:12;4.45;;;1.92;;
29574;SDS011;16507;51.046;6.406;2023-07-13T09:40:11;3.33;;;1.42;;
29574;SDS011;16507;51.046;6.406;2023-07-13T09:42:45;3.85;;;1.67;;
29574;SDS011;16507;51.046;6.406;2023-07-13T09:45:11;4.10;;;1.67;;
29574;SDS011;16507;51.046;6.406;2023-07-13T09:47:53;8.40;;;2.10;;
29574;SDS011;16507;51.046;6.406;2023-07-13T09:50:44;7.13;;;1.58;;
29574;SDS011;16507;51.046;6.406;2023-07-13T09:53:14;8.77;;;1.70;;
29574;SDS011;16507;51.046;6.406;2023-07-13T09:55:42;3.05;;;1.50;;
29574;SDS011;16507;51.046;6.406;2023-07-13T10:00:53;5.43;;;1.50;;
29574;SDS011;16507;51.046;6.406;2023-07-13T10:03:28;7.97;;;1.92;;
29574;SDS011;16507;51.046;6.406;2023-07-13T10:06:01;5.95;;;1.73;;
29574;SDS011;16507;51.046;6.406;2023-07-13T10:08:37;2.95;;;1.48;;
29574;SDS011;16507;51.046;6.406;2023-07-13T10:13:44;4.15;;;1.60;;
29574;SDS011;16507;51.046;6.406;2023-07-13T10:16:14;7.57;;;1.83;;
29574;SDS011;16507;51.046;6.406;2023-07-13T10:18:44;5.88;;;1.55;;
29574;SDS011;16507;51.046;6.406;2023-07-13T10:21:17;5.50;;;1.50;;
29574;SDS011;16507;51.046;6.406;2023-07-13T10:23:56;5.68;;;1.52;;
29574;SDS011;16507;51.046;6.406;2023-07-13T10:26:31;6.97;;;1.65;;
29574;SDS011;16507;51.046;6.406;2023-07-13T10:29:01;3.97;;;1.40;;
29574;SDS011;16507;51.046;6.406;2023-07-13T10:31:34;8.48;;;1.50;;
29574;SDS011;16507;51.046;6.406;2023-07-13T10:34:08;5.15;;;1.50;;
29574;SDS011;16507;51.046;6.406;2023-07-13T10:36:47;6.13;;;1.77;;
29574;SDS011;16507;51.046;6.406;2023-07-13T10:39:20;2.67;;;1.13;;
29574;SDS011;16507;51.046;6.406;2023-07-13T10:41:50;5.13;;;1.23;;
29574;SDS011;16507;51.046;6.406;2023-07-13T10:44:29;2.42;;;1.42;;
29574;SDS011;16507;51.046;6.406;2023-07-13T10:47:01;3.78;;;1.33;;
29574;SDS011;16507;51.046;6.406;2023-07-13T11:02:38;2.85;;;1.33;;
29574;SDS011;16507;51.046;6.406;2023-07-13T11:05:18;4.55;;;1.45;;
29574;SDS011;16507;51.046;6.406;2023-07-13T11:07:55;2.53;;;1.08;;
29574;SDS011;16507;51.046;6.406;2023-07-13T11:10:46;2.58;;;1.20;;
29574;SDS011;16507;51.046;6.406;2023-07-13T11:18:41;4.90;;;1.40;;
29574;SDS011;16507;51.046;6.406;2023-07-13T11:21:21;2.50;;;1.00;;
29574;SDS011;16507;51.046;6.406;2023-07-13T11:23:51;7.32;;;1.10;;
29574;SDS011;16507;51.046;6.406;2023-07-13T11:31:52;5.68;;;1.08;;
29574;SDS011;16507;51.046;6.406;2023-07-13T11:34:33;7.88;;;1.45;;
29574;SDS011;16507;51.046;6.406;2023-07-13T11:37:01;3.70;;;1.20;;
29574;SDS011;16507;51.046;6.406;2023-07-13T11:39:37;3.58;;;1.05;;
29574;SDS011;16507;51.046;6.406;2023-07-13T11:42:08;2.97;;;1.25;;
29574;SDS011;16507;51.046;6.406;2023-07-13T11:44:42;6.70;;;2.28;;
29574;SDS011;16507;51.046;6.406;2023-07-13T11:47:11;5.43;;;1.75;;
29574;SDS011;16507;51.046;6.406;2023-07-13T11:49:45;3.58;;;1.17;;
29574;SDS011;16507;51.046;6.406;2023-07-13T11:52:17;4.22;;;1.00;;
29574;SDS011;16507;51.046;6.406;2023-07-13T11:54:53;5.93;;;1.17;;
29574;SDS011;16507;51.046;6.406;2023-07-13T11:59:59;10.85;;;1.83;;
29574;SDS011;16507;51.046;6.406;2023-07-13T12:02:43;4.78;;;1.80;;
29574;SDS011;16507;51.046;6.406;2023-07-13T12:05:13;5.90;;;1.30;;
29574;SDS011;16507;51.046;6.406;2023-07-13T12:07:40;4.47;;;1.10;;
29574;SDS011;16507;51.046;6.406;2023-07-13T12:10:23;7.45;;;1.20;;
29574;SDS011;16507;51.046;6.406;2023-07-13T12:15:38;5.68;;;1.00;;
29574;SDS011;16507;51.046;6.406;2023-07-13T12:18:12;3.10;;;1.45;;
29574;SDS011;16507;51.046;6.406;2023-07-13T12:20:44;3.53;;;1.42;;
29574;SDS011;16507;51.046;6.406;2023-07-13T12:25:54;4.78;;;1.00;;
29574;SDS011;16507;51.046;6.406;2023-07-13T12:29:06;5.32;;;1.10;;
29574;SDS011;16507;51.046;6.406;2023-07-13T12:34:01;3.67;;;1.00;;
29574;SDS011;16507;51.046;6.406;2023-07-13T12:36:32;4.07;;;0.90;;
29574;SDS011;16507;51.046;6.406;2023-07-13T12:39:06;3.33;;;1.45;;
29574;SDS011;16507;51.046;6.406;2023-07-13T12:41:39;2.60;;;0.82;;
29574;SDS011;16507;51.046;6.406;2023-07-13T12:44:13;2.72;;;1.17;;
29574;SDS011;16507;51.046;6.406;2023-07-13T12:46:50;6.55;;;1.38;;
29574;SDS011;16507;51.046;6.406;2023-07-13T12:49:23;4.18;;;1.10;;
29574;SDS011;16507;51.046;6.406;2023-07-13T12:51:55;13.98;;;1.35;;
29574;SDS011;16507;51.046;6.406;2023-07-13T12:54:26;6.03;;;1.10;;
29574;SDS011;16507;51.046;6.406;2023-07-13T12:56:53;2.80;;;1.20;;
29574;SDS011;16507;51.046;6.406;2023-07-13T12:59:23;11.80;;;1.08;;
29574;SDS011;16507;51.046;6.406;2023-07-13T13:01:51;2.55;;;0.95;;
29574;SDS011;16507;51.046;6.406;2023-07-13T13:04:18;4.15;;;1.10;;
29574;SDS011;16507;51.046;6.406;2023-07-13T13:06:46;3.65;;;1.10;;
29574;SDS011;16507;51.046;6.406;2023-07-13T13:09:14;2.83;;;0.80;;
29574;SDS011;16507;51.046;6.406;2023-07-13T13:11:43;3.30;;;1.15;;
29574;SDS011;16507;51.046;6.406;2023-07-13T13:14:09;4.60;;;0.82;;
29574;SDS011;16507;51.046;6.406;2023-07-13T13:16:48;3.20;;;1.05;;
29574;SDS011;16507;51.046;6.406;2023-07-13T13:19:16;1.98;;;0.70;;
29574;SDS011;16507;51.046;6.406;2023-07-13T13:21:44;1.58;;;1.00;;
29574;SDS011;16507;51.046;6.406;2023-07-13T13:24:11;2.08;;;0.80;;
29574;SDS011;16507;51.046;6.406;2023-07-13T13:26:42;1.60;;;0.75;;
29574;SDS011;16507;51.046;6.406;2023-07-13T13:29:31;4.70;;;0.90;;
29574;SDS011;16507;51.046;6.406;2023-07-13T13:31:56;2.50;;;0.98;;
29574;SDS011;16507;51.046;6.406;2023-07-13T13:34:22;1.60;;;0.70;;
29574;SDS011;16507;51.046;6.406;2023-07-13T13:36:49;4.57;;;0.90;;
29574;SDS011;16507;51.046;6.406;2023-07-13T13:39:27;11.75;;;1.20;;
29574;SDS011;16507;51.046;6.406;2023-07-13T13:42:01;1.83;;;0.88;;
29574;SDS011;16507;51.046;6.406;2023-07-13T13:44:27;1.98;;;0.98;;
29574;SDS011;16507;51.046;6.406;2023-07-13T13:46:54;4.03;;;0.80;;
29574;SDS011;16507;51.046;6.406;2023-07-13T13:49:22;7.53;;;1.25;;
29574;SDS011;16507;51.046;6.406;2023-07-13T13:51:50;1.83;;;0.77;;
29574;SDS011;16507;51.046;6.406;2023-07-13T13:54:17;1.10;;;0.77;;
29574;SDS011;16507;51.046;6.406;2023-07-13T13:56:45;2.53;;;1.00;;
29574;SDS011;16507;51.046;6.406;2023-07-13T13:59:12;1.77;;;1.30;;
29574;SDS011;16507;51.046;6.406;2023-07-13T14:01:39;3.08;;;1.10;;
29574;SDS011;16507;51.046;6.406;2023-07-13T14:04:06;4.40;;;1.10;;
29574;SDS011;16507;51.046;6.406;2023-07-13T14:06:39;3.78;;;1.00;;
29574;SDS011;16507;51.046;6.406;2023-07-13T14:09:08;5.43;;;0.88;;
29574;SDS011;16507;51.046;6.406;2023-07-13T14:11:36;4.47;;;0.98;;
29574;SDS011;16507;51.046;6.406;2023-07-13T14:14:02;5.72;;;1.10;;
29574;SDS011;16507;51.046;6.406;2023-07-13T14:16:30;2.72;;;1.10;;
29574;SDS011;16507;51.046;6.406;2023-07-13T14:18:58;3.90;;;1.08;;
29574;SDS011;16507;51.046;6.406;2023-07-13T14:21:26;3.58;;;1.00;;
29574;SDS011;16507;51.046;6.406;2023-07-13T14:23:53;3.42;;;1.05;;
29574;SDS011;16507;51.046;6.406;2023-07-13T14:26:28;5.97;;;1.10;;
29574;SDS011;16507;51.046;6.406;2023-07-13T14:28:58;1.95;;;0.90;;
29574;SDS011;16507;51.046;6.406;2023-07-13T14:31:25;1.88;;;1.13;;
29574;SDS011;16507;51.046;6.406;2023-07-13T14:33:53;2.60;;;1.10;;
29574;SDS011;16507;51.046;6.406;2023-07-13T14:39:18;17.08;;;1.38;;
29574;SDS011;16507;51.046;6.406;2023-07-13T14:41:50;2.65;;;1.02;;
29574;SDS011;16507;51.046;6.406;2023-07-13T14:44:21;6.53;;;0.98;;
29574;SDS011;16507;51.046;6.406;2023-07-13T14:46:50;3.05;;;0.90;;
29574;SDS011;16507;51.046;6.406;2023-07-13T14:52:05;4.25;;;1.23;;
29574;SDS011;16507;51.046;6.406;2023-07-13T14:54:37;2.53;;;0.98;;
29574;SDS011;16507;51.046;6.406;2023-07-13T14:57:08;13.63;;;1.27;;
29574;SDS011;16507;51.046;6.406;2023-07-13T14:59:35;7.82;;;1.20;;
29574;SDS011;16507;51.046;6.406;2023-07-13T15:02:01;7.40;;;1.13;;
29574;SDS011;16507;51.046;6.406;2023-07-13T15:04:27;3.75;;;1.27;;
29574;SDS011;16507;51.046;6.406;2023-07-13T15:06:58;7.15;;;1.58;;
29574;SDS011;16507;51.046;6.406;2023-07-13T15:09:25;8.95;;;1.50;;
29574;SDS011;16507;51.046;6.406;2023-07-13T15:12:00;6.55;;;1.50;;
29574;SDS011;16507;51.046;6.406;2023-07-13T15:14:25;3.50;;;1.10;;
29574;SDS011;16507;51.046;6.406;2023-07-13T15:16:53;1.85;;;1.35;;
29574;SDS011;16507;51.046;6.406;2023-07-13T15:19:20;5.68;;;1.50;;
29574;SDS011;16507;51.046;6.406;2023-07-13T15:21:48;3.78;;;1.00;;
29574;SDS011;16507;51.046;6.406;2023-07-13T15:24:14;3.53;;;1.20;;
29574;SDS011;16507;51.046;6.406;2023-07-13T15:26:40;1.58;;;1.20;;
29574;SDS011;16507;51.046;6.406;2023-07-13T15:29:10;4.25;;;1.30;;
29574;SDS011;16507;51.046;6.406;2023-07-13T15:31:36;4.13;;;1.08;;
29574;SDS011;16507;51.046;6.406;2023-07-13T15:34:04;3.22;;;1.08;;
29574;SDS011;16507;51.046;6.406;2023-07-13T15:39:02;2.20;;;1.00;;
29574;SDS011;16507;51.046;6.406;2023-07-13T15:41:28;2.17;;;1.02;;
29574;SDS011;16507;51.046;6.406;2023-07-13T15:43:55;4.07;;;1.20;;
29574;SDS011;16507;51.046;6.406;2023-07-13T15:46:26;2.50;;;0.88;;
29574;SDS011;16507;51.046;6.406;2023-07-13T15:48:53;1.50;;;1.00;;
29574;SDS011;16507;51.046;6.406;2023-07-13T15:51:28;5.47;;;1.13;;
29574;SDS011;16507;51.046;6.406;2023-07-13T15:53:59;2.90;;;0.90;;
29574;SDS011;16507;51.046;6.406;2023-07-13T15:56:32;3.85;;;1.00;;
29574;SDS011;16507;51.046;6.406;2023-07-13T15:59:03;5.88;;;1.10;;
29574;SDS011;16507;51.046;6.406;2023-07-13T16:01:29;4.55;;;1.27;;
29574;SDS011;16507;51.046;6.406;2023-07-13T16:03:57;1.90;;;0.93;;
29574;SDS011;16507;51.046;6.406;2023-07-13T16:06:24;1.67;;;0.90;;
29574;SDS011;16507;51.046;6.406;2023-07-13T16:08:52;1.15;;;0.73;;
29574;SDS011;16507;51.046;6.406;2023-07-13T16:11:23;2.55;;;0.95;;